Time;durP1;ratioP1;P1;durP2;ratioP2;P2;SDS_P1;SDS_P2;PMS_P1;PMS_P2;Temp;Humidity;BMP_temperature;BMP_pressure;BME280_temperature;BME280_humidity;BME280_pressure;Samples;Min_cycle;Max_cycle;Signal;HPM_P1;HPM_P2
2022/06/17 00:00:56;;;;;;;3.35;1.92;;;20.60;94.10;;;;;;5072094;28;20039;-78
2022/06/17 00:03:25;;;;;;;3.47;1.77;;;20.60;94.20;;;;;;5071485;28;20428;-78
2022/06/17 00:05:53;;;;;;;1.77;1.65;;;20.60;94.30;;;;;;5071327;28;20089;-76
2022/06/17 00:08:30;;;;;;;5.03;2.08;;;20.60;94.30;;;;;;5071747;28;20024;-78
2022/06/17 00:10:56;;;;;;;1.40;1.30;;;20.60;94.20;;;;;;5053229;28;20064;-78
2022/06/17 00:13:24;;;;;;;2.63;1.63;;;20.60;93.80;;;;;;5071431;28;20422;-79
2022/06/17 00:15:51;;;;;;;2.70;1.70;;;20.60;93.60;;;;;;5071548;28;20048;-78
2022/06/17 00:18:18;;;;;;;2.03;1.83;;;20.60;93.30;;;;;;5071332;28;20036;-78
2022/06/17 00:20:45;;;;;;;1.63;1.52;;;20.60;93.30;;;;;;5071380;28;20509;-78
2022/06/17 00:23:13;;;;;;;4.20;1.35;;;20.50;93.30;;;;;;5070783;28;20433;-78
2022/06/17 00:25:41;;;;;;;2.50;1.50;;;20.50;93.20;;;;;;5071006;28;20104;-78
2022/06/17 00:28:15;;;;;;;4.18;1.50;;;20.50;93.40;;;;;;5070805;28;20043;-78
2022/06/17 00:30:42;;;;;;;2.58;1.77;;;20.40;93.30;;;;;;5074507;28;20028;-78
2022/06/17 00:33:08;;;;;;;2.03;1.35;;;20.40;93.50;;;;;;5091142;28;20098;-78
2022/06/17 00:35:38;;;;;;;2.83;1.65;;;20.40;93.60;;;;;;5091673;28;20394;-80
2022/06/17 00:38:05;;;;;;;2.58;2.35;;;20.40;93.60;;;;;;5091437;28;20028;-79
2022/06/17 00:40:34;;;;;;;2.40;1.83;;;20.40;93.60;;;;;;5091891;28;20073;-79
2022/06/17 00:43:06;;;;;;;2.55;1.60;;;20.30;93.70;;;;;;5091899;28;20028;-78
2022/06/17 00:45:44;;;;;;;1.85;1.67;;;20.30;93.80;;;;;;5092115;28;20160;-79
2022/06/17 00:48:27;;;;;;;2.55;1.80;;;20.30;93.70;;;;;;5092034;28;20028;-77
2022/06/17 00:51:05;;;;;;;1.88;1.55;;;20.30;93.70;;;;;;5091901;28;20024;-78
2022/06/17 00:53:48;;;;;;;2.67;1.85;;;20.30;93.50;;;;;;5092133;28;20051;-78
2022/06/17 00:56:24;;;;;;;2.40;1.60;;;20.20;93.60;;;;;;5092029;28;20035;-78
2022/06/17 00:59:04;;;;;;;6.30;1.80;;;20.10;93.90;;;;;;5092174;28;20027;-78
2022/06/17 01:01:56;;;;;;;2.38;1.63;;;20.10;94.00;;;;;;5091467;28;20040;-79
2022/06/17 01:04:54;;;;;;;1.65;1.55;;;20.10;94.30;;;;;;5090806;28;20052;-78
2022/06/17 01:07:25;;;;;;;3.60;1.80;;;20.00;94.40;;;;;;5039262;28;20461;-78
2022/06/17 01:09:58;;;;;;;1.83;1.73;;;20.00;94.60;;;;;;5096322;28;20027;-78
2022/06/17 01:12:31;;;;;;;2.42;1.88;;;20.00;94.70;;;;;;5096285;28;20024;-78
2022/06/17 01:14:58;;;;;;;2.65;1.67;;;20.00;94.80;;;;;;5094772;28;20020;-77
2022/06/17 01:17:25;;;;;;;2.60;1.90;;;20.00;94.90;;;;;;5095952;28;20028;-79
2022/06/17 01:19:57;;;;;;;2.15;1.70;;;19.90;94.70;;;;;;5095769;28;20036;-78
2022/06/17 01:22:26;;;;;;;2.25;1.67;;;19.90;94.70;;;;;;5096117;28;20024;-78
2022/06/17 01:24:59;;;;;;;2.20;1.90;;;19.90;94.90;;;;;;5095902;28;20073;-78
2022/06/17 01:27:28;;;;;;;2.40;1.85;;;19.90;94.80;;;;;;5095860;28;20028;-78
2022/06/17 01:29:55;;;;;;;1.95;1.70;;;19.90;94.90;;;;;;5095035;28;20351;-76
2022/06/17 01:32:25;;;;;;;2.90;1.73;;;19.90;94.90;;;;;;5095019;28;20020;-78
2022/06/17 01:34:51;;;;;;;2.63;1.95;;;19.90;95.00;;;;;;5095520;28;20035;-78
2022/06/17 01:37:18;;;;;;;2.03;1.88;;;19.90;95.00;;;;;;5095332;28;20503;-78
2022/06/17 01:39:44;;;;;;;2.60;2.00;;;19.90;95.10;;;;;;5095256;28;20115;-78
2022/06/17 01:42:10;;;;;;;3.33;2.05;;;19.90;95.00;;;;;;5094345;28;20153;-78
2022/06/17 01:44:38;;;;;;;2.50;2.08;;;19.90;95.20;;;;;;5095147;28;20035;-78
2022/06/17 01:47:11;;;;;;;1.80;1.70;;;20.00;95.30;;;;;;5095184;28;20044;-78
2022/06/17 01:49:46;;;;;;;1.92;1.73;;;19.90;95.20;;;;;;5094796;28;20114;-78
2022/06/17 01:52:21;;;;;;;2.22;1.60;;;20.00;95.20;;;;;;5078473;28;20027;-78
2022/06/17 01:55:07;;;;;;;2.95;1.85;;;20.00;95.00;;;;;;5074948;28;20031;-78
2022/06/17 01:57:37;;;;;;;4.30;1.80;;;20.00;95.10;;;;;;5074741;28;20377;-78
2022/06/17 02:00:24;;;;;;;1.43;1.33;;;20.00;94.70;;;;;;5074214;28;20054;-78
2022/06/17 02:03:08;;;;;;;2.20;1.90;;;20.10;94.70;;;;;;5073950;28;20023;-78
2022/06/17 02:05:35;;;;;;;2.17;1.83;;;20.10;94.50;;;;;;5075009;28;20031;-79
2022/06/17 02:08:03;;;;;;;1.77;1.63;;;20.10;94.10;;;;;;5074363;28;20059;-78
2022/06/17 02:10:33;;;;;;;3.13;2.00;;;20.20;94.00;;;;;;5074175;28;20085;-78
2022/06/17 02:13:01;;;;;;;2.08;1.88;;;20.20;93.90;;;;;;5074358;28;20040;-77
2022/06/17 02:15:27;;;;;;;2.42;1.88;;;20.20;93.70;;;;;;5074522;28;20028;-78
2022/06/17 02:17:54;;;;;;;2.33;1.67;;;20.30;93.50;;;;;;5074794;28;20021;-78
2022/06/17 02:20:22;;;;;;;2.35;1.83;;;20.30;93.00;;;;;;5073409;28;20071;-78
2022/06/17 02:22:48;;;;;;;2.13;1.73;;;20.30;93.20;;;;;;5074170;28;20452;-78
2022/06/17 02:25:21;;;;;;;3.08;2.00;;;20.30;92.90;;;;;;5056187;28;20025;-78
2022/06/17 02:27:53;;;;;;;2.20;1.80;;;20.30;92.50;;;;;;5074131;28;20046;-79
2022/06/17 02:30:18;;;;;;;3.40;1.50;;;20.30;92.60;;;;;;5073826;28;20041;-79
2022/06/17 02:32:46;;;;;;;2.13;1.90;;;20.30;92.40;;;;;;5074206;28;20028;-78
2022/06/17 02:35:41;;;;;;;1.88;1.58;;;20.30;92.20;;;;;;5074097;28;20050;-78
2022/06/17 02:38:15;;;;;;;3.05;1.90;;;20.30;92.10;;;;;;5073800;28;20021;-79
2022/06/17 02:40:45;;;;;;;3.25;2.10;;;20.30;92.10;;;;;;5088198;28;20024;-78
2022/06/17 02:43:15;;;;;;;2.80;2.00;;;20.30;91.70;;;;;;5092863;28;20058;-78
2022/06/17 02:45:45;;;;;;;2.17;1.98;;;20.30;91.60;;;;;;5093488;28;20739;-78
2022/06/17 02:48:27;;;;;;;5.40;2.13;;;20.20;91.50;;;;;;5092853;28;20029;-77
2022/06/17 02:50:56;;;;;;;3.47;2.00;;;20.20;91.60;;;;;;5093957;28;20384;-78
2022/06/17 02:53:37;;;;;;;3.33;1.92;;;20.10;91.60;;;;;;5093338;28;20161;-78
2022/06/17 02:56:33;;;;;;;2.20;1.92;;;20.10;91.70;;;;;;5093486;28;20115;-77
2022/06/17 02:59:10;;;;;;;2.22;1.73;;;20.10;91.80;;;;;;5072906;28;20032;-78
2022/06/17 03:01:38;;;;;;;2.42;1.88;;;20.10;92.00;;;;;;5093740;28;20016;-78
2022/06/17 03:04:15;;;;;;;3.03;2.25;;;20.10;92.10;;;;;;5093453;28;20016;-77
2022/06/17 03:06:45;;;;;;;2.42;2.00;;;20.10;92.20;;;;;;5093492;28;20024;-78
2022/06/17 03:09:23;;;;;;;2.67;2.28;;;20.10;92.50;;;;;;5093274;28;20032;-77
2022/06/17 03:12:21;;;;;;;2.63;1.95;;;20.10;92.60;;;;;;5093323;28;20032;-78
2022/06/17 03:15:08;;;;;;;3.17;2.08;;;20.00;92.60;;;;;;5093264;28;20024;-78
2022/06/17 03:17:39;;;;;;;5.18;2.20;;;20.10;92.50;;;;;;5093137;28;20020;-77
2022/06/17 03:20:07;;;;;;;2.30;2.10;;;20.00;92.50;;;;;;5092766;28;20028;-77
2022/06/17 03:22:35;;;;;;;2.60;2.00;;;20.00;92.60;;;;;;5093206;28;20481;-78
2022/06/17 03:25:05;;;;;;;3.63;2.20;;;20.00;92.50;;;;;;5093266;28;20118;-78
2022/06/17 03:27:37;;;;;;;2.40;2.20;;;20.00;92.50;;;;;;5093443;28;20028;-78
2022/06/17 03:30:05;;;;;;;2.05;1.85;;;20.00;92.40;;;;;;5073875;28;20035;-77
2022/06/17 03:32:38;;;;;;;2.78;2.40;;;20.00;92.20;;;;;;5093069;28;20119;-77
2022/06/17 03:35:05;;;;;;;2.45;1.88;;;20.00;92.20;;;;;;5094718;28;20024;-77
2022/06/17 03:37:43;;;;;;;2.72;2.15;;;19.90;92.20;;;;;;5094479;28;20028;-77
2022/06/17 03:40:17;;;;;;;2.90;2.17;;;19.90;92.20;;;;;;5092738;28;20046;-77
2022/06/17 03:43:02;;;;;;;2.67;2.25;;;19.90;92.20;;;;;;5092931;28;20032;-77
2022/06/17 03:45:44;;;;;;;3.17;2.22;;;19.90;91.80;;;;;;5074356;28;20048;-77
2022/06/17 03:48:15;;;;;;;2.75;2.05;;;20.00;91.80;;;;;;5089439;28;20038;-77
2022/06/17 03:50:45;;;;;;;2.17;1.88;;;20.00;91.60;;;;;;5070828;28;20036;-77
2022/06/17 03:53:30;;;;;;;2.92;1.92;;;19.90;91.30;;;;;;5092147;28;20435;-77
2022/06/17 03:56:04;;;;;;;1.80;1.70;;;19.90;90.90;;;;;;5092220;28;20024;-77
2022/06/17 03:58:32;;;;;;;3.05;2.20;;;19.90;91.00;;;;;;5088048;28;20127;-78
2022/06/17 04:01:12;;;;;;;4.65;2.10;;;19.90;91.10;;;;;;5081132;28;20436;-77
2022/06/17 04:03:42;;;;;;;2.78;1.80;;;20.00;91.00;;;;;;5086482;28;20028;-77
2022/06/17 04:06:12;;;;;;;4.50;2.05;;;20.00;90.80;;;;;;5092190;28;20063;-77
2022/06/17 04:09:00;;;;;;;3.42;2.33;;;20.00;90.80;;;;;;5072564;28;20032;-77
2022/06/17 04:11:32;;;;;;;2.28;2.08;;;20.00;90.50;;;;;;5053827;28;20101;-78
2022/06/17 04:14:01;;;;;;;2.50;2.30;;;20.00;90.20;;;;;;5072336;28;20021;-77
2022/06/17 04:16:45;;;;;;;2.88;2.38;;;20.00;90.00;;;;;;5086260;28;20024;-78
2022/06/17 04:19:17;;;;;;;2.78;1.98;;;20.00;89.80;;;;;;5091813;28;20198;-77
2022/06/17 04:21:43;;;;;;;3.17;2.38;;;20.00;89.70;;;;;;5092676;28;20059;-78
2022/06/17 04:24:15;;;;;;;2.33;1.92;;;19.90;89.70;;;;;;5091870;28;20480;-77
2022/06/17 04:26:43;;;;;;;2.30;2.08;;;20.00;89.10;;;;;;5092418;28;20036;-77
2022/06/17 04:29:19;;;;;;;2.55;2.20;;;19.90;88.60;;;;;;5092197;28;20118;-77
2022/06/17 04:31:53;;;;;;;2.40;2.20;;;19.90;88.20;;;;;;5092183;28;20404;-77
2022/06/17 04:34:19;;;;;;;2.72;2.10;;;20.00;88.00;;;;;;5071901;28;20032;-78
2022/06/17 04:36:47;;;;;;;3.70;1.83;;;20.00;87.70;;;;;;5073436;28;20021;-77
2022/06/17 04:39:43;;;;;;;2.17;1.98;;;20.00;87.80;;;;;;5092191;28;20028;-77
2022/06/17 04:42:16;;;;;;;2.25;1.88;;;20.10;88.30;;;;;;5095352;28;20077;-77
2022/06/17 04:44:42;;;;;;;2.30;2.00;;;20.30;88.30;;;;;;5096771;28;20069;-77
2022/06/17 04:47:18;;;;;;;2.40;1.98;;;20.50;88.00;;;;;;5077621;28;20092;-76
2022/06/17 04:49:56;;;;;;;2.45;2.20;;;20.70;86.70;;;;;;5096059;28;20036;-78
2022/06/17 04:52:36;;;;;;;1.70;1.60;;;21.00;84.80;;;;;;5096117;28;20024;-77
2022/06/17 04:55:05;;;;;;;4.28;2.22;;;21.30;81.90;;;;;;5096409;28;20028;-77
2022/06/17 04:57:30;;;;;;;2.33;1.85;;;21.50;79.50;;;;;;5095724;28;20024;-79
2022/06/17 05:00:00;;;;;;;3.58;2.20;;;21.60;78.70;;;;;;5096001;28;20043;-77
2022/06/17 05:02:29;;;;;;;3.17;2.22;;;21.80;77.50;;;;;;5095471;28;20020;-78
2022/06/17 05:04:58;;;;;;;2.85;2.28;;;22.30;77.00;;;;;;5096217;28;20024;-79
2022/06/17 05:07:27;;;;;;;2.10;1.90;;;22.70;74.70;;;;;;5083381;28;20029;-78
2022/06/17 05:10:07;;;;;;;2.42;2.20;;;22.90;72.50;;;;;;5076114;28;20028;-78
2022/06/17 05:12:40;;;;;;;4.63;1.98;;;23.10;70.80;;;;;;5075186;28;20084;-78
2022/06/17 05:15:11;;;;;;;2.63;2.15;;;23.50;69.60;;;;;;5074648;28;20048;-76
2022/06/17 05:17:38;;;;;;;2.65;2.20;;;23.90;67.90;;;;;;5075071;28;20461;-77
2022/06/17 05:20:05;;;;;;;2.50;1.80;;;24.50;65.90;;;;;;5075070;28;20035;-77
2022/06/17 05:22:37;;;;;;;2.92;1.90;;;24.80;64.10;;;;;;5074767;28;20064;-77
2022/06/17 05:25:10;;;;;;;3.80;1.90;;;24.70;63.50;;;;;;5075247;28;20111;-76
2022/06/17 05:27:36;;;;;;;3.00;2.30;;;25.00;63.40;;;;;;5075112;28;20023;-77
2022/06/17 05:30:02;;;;;;;2.47;2.08;;;25.40;61.50;;;;;;5075154;28;20037;-77
2022/06/17 05:32:28;;;;;;;3.67;2.30;;;25.70;60.90;;;;;;5081593;28;20024;-77
2022/06/17 05:34:53;;;;;;;3.53;1.85;;;25.80;60.30;;;;;;5095236;28;20039;-75
2022/06/17 05:37:19;;;;;;;3.15;1.80;;;25.80;59.80;;;;;;5088597;28;20054;-76
2022/06/17 05:39:44;;;;;;;2.47;2.28;;;25.70;60.00;;;;;;5095103;28;20036;-76
2022/06/17 05:42:11;;;;;;;2.10;1.88;;;25.60;60.20;;;;;;5094897;28;20082;-76
2022/06/17 05:44:37;;;;;;;2.42;1.80;;;25.60;60.80;;;;;;5086732;28;20090;-76
2022/06/17 05:47:03;;;;;;;2.28;2.08;;;25.70;60.20;;;;;;5074943;28;20099;-76
2022/06/17 05:49:29;;;;;;;4.03;2.30;;;26.00;59.20;;;;;;5074081;28;20115;-75
2022/06/17 05:51:55;;;;;;;2.75;1.73;;;26.80;58.40;;;;;;5074440;28;20433;-75
2022/06/17 05:54:20;;;;;;;4.45;1.98;;;27.80;55.10;;;;;;5074214;28;20390;-75
2022/06/17 05:56:46;;;;;;;1.92;1.77;;;28.40;53.70;;;;;;5074551;28;20373;-75
2022/06/17 05:59:12;;;;;;;2.20;2.00;;;29.30;51.30;;;;;;5074581;28;20056;-76
2022/06/17 06:01:38;;;;;;;2.28;1.98;;;30.30;49.20;;;;;;5074677;28;20131;-78
2022/06/17 06:04:04;;;;;;;2.25;1.70;;;30.50;47.60;;;;;;5074615;28;20099;-78
2022/06/17 06:06:30;;;;;;;3.30;2.03;;;30.70;47.00;;;;;;5074580;28;20063;-77
2022/06/17 06:08:56;;;;;;;4.03;1.50;;;30.80;46.30;;;;;;5074461;28;20028;-77
2022/06/17 06:11:22;;;;;;;1.95;1.60;;;30.70;46.80;;;;;;5074225;28;20102;-76
2022/06/17 06:13:47;;;;;;;2.40;1.83;;;30.80;46.30;;;;;;5074271;28;20052;-76
2022/06/17 06:16:15;;;;;;;2.47;1.33;;;31.10;46.20;;;;;;5074321;28;20052;-76
2022/06/17 06:18:41;;;;;;;1.60;1.50;;;31.70;44.80;;;;;;5074355;28;20078;-76
2022/06/17 06:21:07;;;;;;;2.83;1.70;;;31.80;44.10;;;;;;5074421;28;20444;-76
2022/06/17 06:23:34;;;;;;;3.00;1.67;;;31.60;43.70;;;;;;5073875;28;20055;-77
2022/06/17 06:26:00;;;;;;;2.53;1.70;;;30.90;43.70;;;;;;5074218;28;20025;-74
2022/06/17 06:28:27;;;;;;;1.98;1.70;;;31.10;45.30;;;;;;5073440;28;20384;-76
2022/06/17 06:30:57;;;;;;;2.03;1.83;;;31.00;44.90;;;;;;5073845;28;20040;-76
2022/06/17 06:33:23;;;;;;;1.80;1.70;;;30.50;45.80;;;;;;5074709;28;20024;-76
2022/06/17 06:35:48;;;;;;;1.98;1.77;;;30.30;46.60;;;;;;5094419;28;20028;-77
2022/06/17 06:38:14;;;;;;;1.75;1.65;;;30.60;46.60;;;;;;5093945;28;20056;-76
2022/06/17 06:40:40;;;;;;;2.88;2.10;;;30.70;46.40;;;;;;5094188;28;20039;-76
2022/06/17 06:43:12;;;;;;;1.90;1.70;;;30.40;45.40;;;;;;5094262;28;20365;-75
2022/06/17 06:45:38;;;;;;;2.78;1.90;;;30.40;46.80;;;;;;5093954;28;20063;-75
2022/06/17 06:48:07;;;;;;;2.40;1.80;;;30.90;46.50;;;;;;5095435;28;20020;-76
2022/06/17 06:50:35;;;;;;;2.67;1.85;;;31.40;45.30;;;;;;5093406;28;20493;-76
2022/06/17 06:53:01;;;;;;;2.10;1.80;;;31.80;45.40;;;;;;5093775;28;20037;-76
2022/06/17 06:55:27;;;;;;;4.00;2.13;;;32.30;44.30;;;;;;5093643;28;20032;-75
2022/06/17 06:57:56;;;;;;;2.10;1.40;;;32.60;43.40;;;;;;5093983;28;20028;-76
2022/06/17 07:00:31;;;;;;;1.90;1.75;;;32.60;43.70;;;;;;5092973;28;20024;-76
2022/06/17 07:02:57;;;;;;;1.98;1.80;;;32.70;42.20;;;;;;5093255;28;20111;-76
2022/06/17 07:05:23;;;;;;;1.83;1.52;;;32.60;41.90;;;;;;5092938;28;20468;-76
2022/06/17 07:07:48;;;;;;;2.03;1.88;;;32.60;42.50;;;;;;5093476;28;20024;-76
2022/06/17 07:10:20;;;;;;;1.50;1.40;;;32.50;42.20;;;;;;5093331;28;20047;-76
2022/06/17 07:12:46;;;;;;;4.18;2.28;;;32.70;42.20;;;;;;5093566;28;20017;-76
2022/06/17 07:15:13;;;;;;;1.98;1.40;;;32.20;41.30;;;;;;5093620;28;20028;-76
2022/06/17 07:17:39;;;;;;;1.60;1.50;;;31.50;42.50;;;;;;5092882;28;20082;-75
2022/06/17 07:20:06;;;;;;;2.38;1.60;;;31.00;43.60;;;;;;5093355;28;20544;-75
2022/06/17 07:22:31;;;;;;;2.47;1.90;;;30.80;44.60;;;;;;5092660;28;20059;-75
2022/06/17 07:24:57;;;;;;;2.50;1.60;;;30.30;44.70;;;;;;5093295;28;20154;-76
2022/06/17 07:27:23;;;;;;;4.03;1.83;;;29.70;46.10;;;;;;5093241;28;20457;-74
2022/06/17 07:29:48;;;;;;;2.53;1.75;;;29.20;46.70;;;;;;5093114;28;20036;-76
2022/06/17 07:32:14;;;;;;;3.20;2.38;;;28.80;46.70;;;;;;5093019;28;20027;-76
2022/06/17 07:34:40;;;;;;;2.20;2.00;;;28.30;47.30;;;;;;5092869;28;20108;-77
2022/06/17 07:39:56;;;;;;;2.15;1.77;;;28.10;51.00;;;;;;5072888;28;20035;-76
2022/06/17 07:42:24;;;;;;;2.08;1.73;;;29.20;51.20;;;;;;5072369;28;20169;-75
2022/06/17 07:44:51;;;;;;;1.83;1.73;;;30.60;47.40;;;;;;5072355;28;20028;-75
2022/06/17 07:47:19;;;;;;;2.47;1.88;;;30.90;46.50;;;;;;5072833;28;20024;-76
2022/06/17 07:49:45;;;;;;;5.10;2.10;;;31.10;45.80;;;;;;5072356;28;20040;-76
2022/06/17 07:52:12;;;;;;;3.30;2.40;;;31.70;44.30;;;;;;5072409;28;20044;-76
2022/06/17 07:54:38;;;;;;;2.00;1.70;;;32.10;44.40;;;;;;5072242;28;20033;-76
2022/06/17 07:57:04;;;;;;;3.75;1.80;;;32.70;43.50;;;;;;5072441;28;20020;-76
2022/06/17 07:59:30;;;;;;;1.90;1.50;;;32.60;41.40;;;;;;5072104;28;20107;-76
2022/06/17 08:01:56;;;;;;;2.47;1.67;;;32.10;42.00;;;;;;5072085;28;20056;-76
2022/06/17 08:04:21;;;;;;;2.40;1.80;;;31.60;45.10;;;;;;5072411;28;20024;-75
2022/06/17 08:06:50;;;;;;;3.25;1.77;;;32.20;44.30;;;;;;5071981;28;20025;-77
2022/06/17 08:09:19;;;;;;;1.90;1.63;;;32.60;42.80;;;;;;5072267;28;20028;-77
2022/06/17 08:11:47;;;;;;;2.38;1.83;;;32.80;42.80;;;;;;5071725;28;20057;-77
2022/06/17 08:14:13;;;;;;;2.50;1.73;;;32.40;42.60;;;;;;5072033;28;20066;-76
2022/06/17 08:16:39;;;;;;;2.53;1.98;;;32.30;43.00;;;;;;5071581;28;20464;-76
2022/06/17 08:19:07;;;;;;;2.85;1.88;;;32.00;42.70;;;;;;5072220;28;20047;-77
2022/06/17 08:21:33;;;;;;;2.30;1.63;;;31.70;42.60;;;;;;5071902;28;20020;-76
2022/06/17 08:23:59;;;;;;;2.55;1.90;;;31.50;43.60;;;;;;5072617;28;20128;-76
2022/06/17 08:26:25;;;;;;;1.88;1.70;;;31.20;43.70;;;;;;5071634;28;20146;-74
2022/06/17 08:28:50;;;;;;;2.38;2.00;;;30.60;45.00;;;;;;5071941;28;20514;-76
2022/06/17 08:31:16;;;;;;;2.55;1.55;;;30.00;45.50;;;;;;5071952;28;20075;-76
2022/06/17 08:33:42;;;;;;;1.83;1.73;;;29.50;47.00;;;;;;5071906;28;20117;-75
2022/06/17 08:36:14;;;;;;;2.83;2.33;;;29.10;48.50;;;;;;5071944;28;20052;-75
2022/06/17 08:38:47;;;;;;;4.25;2.22;;;28.70;48.20;;;;;;5071999;28;20025;-76
2022/06/17 08:41:30;;;;;;;2.13;1.65;;;28.40;49.20;;;;;;5071776;28;20036;-76
2022/06/17 08:44:01;;;;;;;3.00;2.20;;;28.00;49.70;;;;;;5091426;28;20031;-76
2022/06/17 08:46:50;;;;;;;2.45;2.25;;;27.80;49.80;;;;;;5096498;28;20064;-77
2022/06/17 08:49:19;;;;;;;1.92;1.63;;;27.60;51.20;;;;;;5092822;28;20058;-75
2022/06/17 08:52:07;;;;;;;2.42;1.80;;;27.40;52.50;;;;;;5091675;28;20024;-74
2022/06/17 08:54:39;;;;;;;2.67;1.92;;;27.30;53.80;;;;;;5092107;28;20035;-75
2022/06/17 08:57:37;;;;;;;2.30;2.00;;;27.10;52.60;;;;;;5092567;28;20134;-76
2022/06/17 09:01:01;;;;;;;2.45;1.90;;;27.00;52.30;;;;;;5092075;28;20035;-76
2022/06/17 09:03:39;;;;;;;1.83;1.73;;;26.90;51.50;;;;;;5029815;28;20072;-75
2022/06/17 09:06:26;;;;;;;3.05;1.80;;;26.80;52.20;;;;;;5092145;28;20024;-76
2022/06/17 09:09:12;;;;;;;2.05;1.80;;;26.80;53.60;;;;;;5093780;28;20453;-74
2022/06/17 09:11:47;;;;;;;2.08;1.88;;;26.70;53.80;;;;;;5092516;28;20391;-74
2022/06/17 09:14:42;;;;;;;3.80;1.90;;;26.70;53.50;;;;;;5092331;28;20104;-76
2022/06/17 09:17:30;;;;;;;3.15;2.15;;;26.60;52.20;;;;;;5003692;28;20102;-75
2022/06/17 09:20:19;;;;;;;2.78;1.70;;;26.60;52.80;;;;;;5094640;28;20028;-77
2022/06/17 09:22:53;;;;;;;6.75;1.80;;;26.60;53.00;;;;;;5091545;28;20157;-77
2022/06/17 09:25:23;;;;;;;1.70;1.60;;;26.50;52.90;;;;;;5092356;28;20051;-76
2022/06/17 09:27:50;;;;;;;;;;;26.50;52.70;;;;;;5094139;28;20054;-76
2022/06/17 09:30:34;;;;;;;1.60;1.50;;;26.40;52.40;;;;;;5095344;28;20282;-76
2022/06/17 09:33:12;;;;;;;3.50;2.30;;;26.40;52.50;;;;;;5089517;28;20036;-76
2022/06/17 09:35:43;;;;;;;2.13;1.90;;;26.30;52.10;;;;;;5074949;28;20032;-74
2022/06/17 09:38:33;;;;;;;1.75;1.65;;;26.20;52.50;;;;;;5075466;28;20127;-75
2022/06/17 09:41:13;;;;;;;2.55;2.15;;;26.10;53.30;;;;;;5075130;28;20040;-75
2022/06/17 09:43:49;;;;;;;1.95;1.65;;;26.10;53.60;;;;;;5075012;28;20028;-75
2022/06/17 09:46:42;;;;;;;2.88;2.10;;;26.10;53.40;;;;;;5075186;28;20106;-75
2022/06/17 09:49:13;;;;;;;1.70;1.60;;;26.10;52.60;;;;;;5074769;28;20032;-75
2022/06/17 09:51:49;;;;;;;2.38;1.77;;;26.00;52.20;;;;;;5074624;28;20029;-75
2022/06/17 09:54:27;;;;;;;1.70;1.60;;;25.90;51.80;;;;;;5074909;28;20078;-75
2022/06/17 09:57:07;;;;;;;2.50;1.70;;;25.80;52.30;;;;;;5075281;28;20024;-76
2022/06/17 09:59:39;;;;;;;2.42;2.10;;;25.80;52.70;;;;;;5074987;28;20123;-75
2022/06/17 10:02:35;;;;;;;3.03;2.20;;;25.70;52.30;;;;;;5077407;28;20323;-76
2022/06/17 10:05:19;;;;;;;2.17;1.73;;;25.60;51.90;;;;;;5039476;28;20105;-76
2022/06/17 10:07:54;;;;;;;2.90;1.73;;;25.50;52.60;;;;;;5073897;28;20107;-76
2022/06/17 10:10:23;;;;;;;2.38;1.90;;;25.50;52.80;;;;;;5074318;28;20059;-76
2022/06/17 10:13:06;;;;;;;1.75;1.55;;;25.60;53.60;;;;;;5073918;28;20032;-76
2022/06/17 10:18:31;;;;;;;2.75;1.70;;;25.70;54.50;;;;;;5073873;28;20064;-75
2022/06/17 10:18:52;;;;;;;2.08;1.40;;;25.80;53.10;;;;;;5073942;28;20431;-75
2022/06/17 10:21:21;;;;;;;2.05;1.75;;;25.80;52.60;;;;;;5074530;28;20445;-76
2022/06/17 10:23:56;;;;;;;2.13;1.73;;;25.90;52.30;;;;;;5073668;28;20514;-76
2022/06/17 10:26:51;;;;;;;1.75;1.50;;;25.90;51.60;;;;;;5074321;28;20437;-76
2022/06/17 10:29:41;;;;;;;3.92;1.60;;;25.90;50.70;;;;;;5047254;28;20059;-78
2022/06/17 10:32:07;;;;;;;2.08;1.65;;;25.80;50.00;;;;;;5074350;28;20033;-76
2022/06/17 10:34:44;;;;;;;2.58;1.70;;;25.90;50.50;;;;;;5073569;28;20029;-74
2022/06/17 10:37:11;;;;;;;1.50;1.40;;;26.00;51.80;;;;;;5073952;28;20047;-74
2022/06/17 10:39:39;;;;;;;1.98;1.50;;;26.00;49.70;;;;;;5088137;28;20108;-74
2022/06/17 10:42:09;;;;;;;3.15;2.17;;;25.90;50.00;;;;;;5093830;28;20106;-75
2022/06/17 10:44:36;;;;;;;2.22;1.75;;;26.00;50.60;;;;;;5093436;28;20024;-73
2022/06/17 10:47:40;;;;;;;2.13;1.70;;;26.00;51.20;;;;;;5093863;28;20036;-75
2022/06/17 10:50:19;;;;;;;1.90;1.50;;;26.00;50.70;;;;;;5054797;28;20090;-75
2022/06/17 10:53:02;;;;;;;2.30;1.60;;;26.00;49.80;;;;;;5093173;28;20049;-77
2022/06/17 10:55:39;;;;;;;1.52;1.42;;;25.90;49.70;;;;;;5093912;28;20570;-75
2022/06/17 10:58:18;;;;;;;2.40;1.45;;;26.00;49.80;;;;;;5093509;28;20035;-76
2022/06/17 11:00:50;;;;;;;1.70;1.45;;;26.00;50.70;;;;;;5093005;28;20032;-75
2022/06/17 11:03:28;;;;;;;2.20;1.52;;;26.10;50.60;;;;;;5093422;28;20031;-75
2022/06/17 11:06:01;;;;;;;2.45;1.35;;;26.10;50.30;;;;;;5093388;28;20050;-75
2022/06/17 11:08:49;;;;;;;2.72;1.30;;;26.10;48.70;;;;;;5093611;28;20024;-76
2022/06/17 11:14:27;;;;;;;1.20;1.10;;;26.10;47.60;;;;;;5093812;28;20082;-75
2022/06/17 11:16:53;;;;;;;1.45;1.00;;;26.00;48.60;;;;;;5092980;28;20391;-75
2022/06/17 11:19:21;;;;;;;2.67;1.38;;;26.00;48.30;;;;;;5093480;28;20032;-75
2022/06/17 11:21:50;;;;;;;2.28;1.20;;;25.90;47.30;;;;;;5092284;28;20024;-75
2022/06/17 11:24:31;;;;;;;4.80;1.30;;;25.90;47.40;;;;;;5092895;28;20028;-76
2022/06/17 11:27:17;;;;;;;1.45;1.20;;;25.90;47.50;;;;;;5092119;28;20432;-76
2022/06/17 11:29:50;;;;;;;2.53;1.40;;;25.90;48.30;;;;;;5092337;28;20043;-76
2022/06/17 11:32:29;;;;;;;1.10;1.00;;;26.00;48.20;;;;;;5092735;28;20124;-76
2022/06/17 11:35:26;;;;;;;1.85;1.40;;;26.00;47.30;;;;;;5076965;28;20111;-76
2022/06/17 11:37:54;;;;;;;1.85;1.35;;;26.00;47.40;;;;;;5072199;28;20028;-76
2022/06/17 11:40:21;;;;;;;2.05;1.30;;;26.00;47.10;;;;;;5072319;28;20085;-76
2022/06/17 11:42:57;;;;;;;1.48;1.23;;;25.90;47.50;;;;;;5071854;28;20028;-76
2022/06/17 11:45:36;;;;;;;2.67;1.35;;;26.00;47.90;;;;;;5071683;28;20059;-77
2022/06/17 11:48:18;;;;;;;3.97;1.25;;;26.00;48.60;;;;;;5071405;28;20040;-76
2022/06/17 11:51:04;;;;;;;1.15;1.00;;;26.00;46.90;;;;;;5071083;28;20028;-76
2022/06/17 11:53:31;;;;;;;1.23;1.13;;;26.00;46.80;;;;;;5071936;28;20432;-76
2022/06/17 11:55:58;;;;;;;1.25;1.15;;;26.00;46.90;;;;;;5071496;28;20033;-76
2022/06/17 11:58:24;;;;;;;2.67;1.20;;;26.10;46.80;;;;;;5071846;28;20111;-76
2022/06/17 12:00:55;;;;;;;1.33;1.17;;;26.10;46.90;;;;;;5071442;28;20441;-76
2022/06/17 12:03:40;;;;;;;1.92;1.13;;;26.10;45.80;;;;;;5071815;28;20056;-76
2022/06/17 12:06:20;;;;;;;1.70;1.25;;;26.10;46.30;;;;;;5071969;28;20372;-76
2022/06/17 12:08:52;;;;;;;2.75;1.42;;;26.10;47.00;;;;;;5071545;28;20028;-76
2022/06/17 12:11:32;;;;;;;1.10;1.00;;;26.00;47.60;;;;;;5071735;28;20460;-76
2022/06/17 12:14:01;;;;;;;1.65;1.20;;;26.00;46.60;;;;;;5071503;28;20430;-76
2022/06/17 12:16:43;;;;;;;2.10;1.57;;;26.00;47.40;;;;;;5071507;28;20024;-76
2022/06/17 12:19:21;;;;;;;1.15;1.02;;;26.00;48.10;;;;;;5071554;28;20111;-76
2022/06/17 12:22:37;;;;;;;1.35;1.25;;;26.00;47.90;;;;;;5071269;28;20060;-76
2022/06/17 12:25:06;;;;;;;1.50;1.13;;;26.00;47.50;;;;;;5049240;28;20122;-76
2022/06/17 12:27:57;;;;;;;0.90;0.80;;;26.00;46.50;;;;;;5071983;28;20098;-76
2022/06/17 12:30:36;;;;;;;2.75;1.38;;;26.10;46.70;;;;;;5071566;28;20036;-75
2022/06/17 12:33:17;;;;;;;1.40;1.13;;;26.10;46.30;;;;;;5071223;28;20032;-75
2022/06/17 12:35:59;;;;;;;2.17;1.20;;;26.10;46.60;;;;;;5071260;28;20016;-75
2022/06/17 12:39:10;;;;;;;3.35;1.35;;;26.10;47.20;;;;;;5081229;28;20055;-76
2022/06/17 12:41:42;;;;;;;1.58;1.25;;;26.10;46.90;;;;;;5079286;28;20031;-77
2022/06/17 12:44:17;;;;;;;1.55;1.15;;;26.10;47.60;;;;;;5091865;28;20128;-75
2022/06/17 12:46:52;;;;;;;2.10;1.20;;;26.10;46.80;;;;;;5091200;28;20063;-75
2022/06/17 12:55:24;;;;;;;1.20;1.10;;;26.10;45.80;;;;;;5091666;28;20064;-76
2022/06/17 12:58:28;;;;;;;1.77;1.13;;;26.00;45.40;;;;;;5091335;28;20069;-76
2022/06/17 13:01:02;;;;;;;0.93;0.90;;;26.00;46.60;;;;;;5091296;28;20044;-76
2022/06/17 13:03:49;;;;;;;1.73;1.50;;;25.90;45.40;;;;;;5094996;28;20024;-76
2022/06/17 13:06:27;;;;;;;2.45;1.02;;;25.90;45.20;;;;;;5095447;28;20218;-77
2022/06/17 13:08:58;;;;;;;1.30;1.10;;;25.90;45.60;;;;;;5095464;28;20028;-76
2022/06/17 13:11:36;;;;;;;1.05;0.90;;;25.90;46.60;;;;;;5095276;28;20049;-78
2022/06/17 13:14:40;;;;;;;2.22;1.30;;;25.80;46.70;;;;;;5094957;28;20027;-75
2022/06/17 13:17:21;;;;;;;0.90;0.85;;;25.90;45.80;;;;;;5094945;28;20380;-75
2022/06/17 13:20:00;;;;;;;1.48;1.10;;;25.80;45.40;;;;;;5095000;28;20024;-74
2022/06/17 13:22:42;;;;;;;2.65;1.20;;;25.80;44.90;;;;;;5095186;28;20028;-75
2022/06/17 13:25:23;;;;;;;0.65;0.65;;;25.80;45.60;;;;;;5094817;28;20460;-76
2022/06/17 13:28:08;;;;;;;1.25;1.10;;;25.80;45.90;;;;;;5094928;28;20024;-76
2022/06/17 13:30:42;;;;;;;0.98;0.93;;;25.80;46.50;;;;;;5094714;28;20038;-77
2022/06/17 13:33:17;;;;;;;1.85;1.20;;;25.80;45.40;;;;;;5094674;28;20052;-77